Tiempo atmosférico en la estación meteorológica de Campos, Salines Llevant, Illes Balears (3 m.)

Fecha
DESCASC
Temp. máxima en grados centígrados (hora)
DESCASC
Temp. mínima en grados centígrados (hora)
DESCASC
Temp. media en grados centígrados
DESCASC
Racha de viento máxima en m/sg (hora)
DESCASC
Velocidad máxima media en intervalos de 10 minutos(hora)
DESCASC
Precipitaciones diarias en mm
DESCASC
Precipitaciones de 00:00 a 06:00 en mm
DESCASC
Precipitaciones de 06:00 a 12:00 en mm
DESCASC
Precipitaciones de 12:00 a 18:00 en mm
DESCASC
Precipitaciones de 18:00 a 24:00 en mm
DESCASC
21-08-2017 31.1 (13:20) 16.9 (07:10) 24 9.17 (13:40) 6.11 (13:40) 0 0 0 0 0
20-08-2017 29.8 (15:40) 19.9 (06:40) 24.8 11.94 (14:40) 8.06 (15:40) 0 0 0 0 0
19-08-2017 31.6 (14:10) 21.1 (02:10) 26.4 10.56 (14:00) 7.22 (13:00) 0 0 0 0 0
18-08-2017 32.8 (13:00) 18.9 (07:10) 25.8 7.22 (12:50) 4.72 (14:30) 0 0 0 0 0
17-08-2017 33.6 (13:50) 22.4 (00:00) 28 10 (15:40) 7.22 (16:10) 0 0 0 0 0
16-08-2017 33 (16:20) 23.6 (00:00) 28.3 9.17 (19:40) 5.83 (13:40) 0 0 0 0 0
15-08-2017 31.7 (15:40) 22.1 (00:00) 26.9 10 (14:30) 6.67 (17:00) 0 0 0 0 0
14-08-2017 30.5 (14:40) 19.4 (06:30) 24.9 12.22 (15:40) 7.22 (15:10) 0 0 0 0 0
13-08-2017 30.3 (15:40) 16.7 (00:00) 23.5 11.94 (15:40) 7.78 (18:10) 0 0 0 0 0
12-08-2017 28 (17:30) 18.7 (00:00) 23.4 8.33 (12:50) 5.28 (12:50) 0 0 0 0 0
11-08-2017 28.3 (12:30) 14.3 (00:00) 21.3 9.72 (18:00) 6.94 (18:10) 0 0 0 0 0
10-08-2017 25.4 (16:50) 16.6 (00:00) 21 12.78 (03:30) 7.78 (03:40) 5.8 2.2 3.6 0 0
09-08-2017 28.6 (14:20) 22.5 (00:00) 25.6 10.28 (14:10) 6.39 (14:10) 0 0 0 0 0
08-08-2017 32 (18:00) 24.4 (00:00) 28.2 11.39 (20:10) 8.33 (20:10) 0 0 0 0 0
07-08-2017 33.4 (15:30) 22 (00:00) 27.7 9.17 (13:30) 6.11 (13:10) 0 0 0 0 0
06-08-2017 33.4 (16:30) 23.9 (00:00) 28.7 11.39 (13:00) 6.94 (13:00) 0 0 0 0 0
05-08-2017 36.4 (14:30) 23 (00:00) 29.7 13.89 (15:40) 7.5 (16:50) 0 0 0 0 0
04-08-2017 33 (15:00) 23.2 (00:00) 28.1 6.94 (13:00) 5.28 (15:20) 0 0 0 0 0
03-08-2017 39.1 (14:10) 26.6 (00:00) 32.8 16.67 (03:40) 8.33 (03:40) 0.4 0.4 0 0 0
02-08-2017 37.9 (14:50) 26.4 (00:00) 32.2 8.61 (23:00) 5.83 (18:40) 0 0 0 0 0
01-08-2017 37.1 (18:10) 25.7 (00:00) 31.4 10 (22:20) 6.39 (18:20) 0.2 0 0 0 0.2
31-07-2017 35.9 (15:30) 23.5 (00:00) 29.7 10 (11:40) 6.39 (11:50) 0 0 0 0 0
30-07-2017 35.3 (14:30) 19.8 (00:00) 27.5 7.5 (12:50) 4.44 (12:50) 0 0 0 0 0
29-07-2017 34.1 (15:30) 21.3 (00:00) 27.7 9.17 (13:50) 6.11 (20:30) 0 0 0 0 0
28-07-2017 33.2 (13:00) 18.8 (00:00) 26 9.17 (16:00) 6.39 (16:30) 0 0 0 0 0
27-07-2017 29.2 (15:00) 17.4 (00:00) 23.3 9.17 (14:20) 5.56 (14:00) 0 0 0 0 0
26-07-2017 28.3 (15:00) 18.5 (00:00) 23.4 10.28 (19:40) 7.22 (18:20) 0.2 0 0.2 0 0
25-07-2017 28.4 (13:20) 21.4 (00:00) 24.9 9.72 (08:30) 6.11 (13:30) 0 0 0 0 0
24-07-2017 32.1 (18:00) 21.4 (00:00) 26.7 12.5 (17:10) 9.44 (17:10) 0 0 0 0 0
23-07-2017 31.3 (17:10) 21.9 (00:00) 26.6 11.11 (11:10) 7.22 (11:20) 0 0 0 0 0

Gráficas

Temp. máximas Temp. mínimas Temp. medias Precipitaciones Rachas de viento máximas Velocidades máximas media en intervalos de 10 minutos

Datos horarios

Fecha y hora oficial Temperatura (ºC) Velocidad del viento (km/h) Dirección del viento Racha (km/h) Dirección de racha Precipitación (mm) Presión (hPa) Tendencia (hPa) Humedad (%)
2017-08-21 23:00:00 22.2 4 Sudeste 6 Sudeste 0 -- -- 75
2017-08-21 22:00:00 23.6 4 Sudeste 6 Sur 0 -- -- 70
2017-08-21 21:00:00 25.5 4 Sur 12 Sudoeste 0 -- -- 68
2017-08-21 20:00:00 27.2 7 Sudoeste 18 Sudoeste 0 -- -- 62
2017-08-21 19:00:00 28 9 Sudoeste 20 Sudoeste 0 -- -- 58
2017-08-21 18:00:00 28.4 11 Sudoeste 27 Sudoeste 0 -- -- 58
2017-08-21 17:00:00 28.7 14 Sudoeste 28 Sudoeste 0 -- -- 56
2017-08-21 16:00:00 29 14 Sudoeste 28 Sudoeste 0 -- -- 54
2017-08-21 15:00:00 29.2 13 Sudoeste 28 Sudeste 0 -- -- 53
2017-08-21 14:00:00 29.9 14 Sur 33 Sudeste 0 -- -- 50
2017-08-21 13:00:00 30.3 8 Noroeste 24 Norte 0 -- -- 37
2017-08-21 12:00:00 28.8 12 Nordeste 23 Nordeste 0 -- -- 42
2017-08-21 11:00:00 27.4 13 Nordeste 26 Norte 0 -- -- 49
2017-08-21 10:00:00 25.9 15 Nordeste 23 Norte 0 -- -- 57
2017-08-21 09:00:00 22.4 3 Noroeste 5 Norte 0 -- -- 72
2017-08-21 08:00:00 19.1 0 Calma 3 Noroeste 0 -- -- 78
2017-08-21 07:00:00 17 0 Calma 3 Sudeste 0 -- -- 78
2017-08-21 06:00:00 17.3 0 Calma 2 Norte 0 -- -- 77
2017-08-21 05:00:00 17.7 0 Calma 4 Este 0 -- -- 75
2017-08-21 04:00:00 18.9 0 Calma 4 Noroeste 0 -- -- 72
2017-08-21 03:00:00 18.6 0 Calma 3 Noroeste 0 -- -- 72
2017-08-21 02:00:00 19.3 0 Calma 3 Noroeste 0 -- -- 68
2017-08-21 01:00:00 20.3 0 Calma 4 Norte 0 -- -- 65
2017-08-21 00:00:00 21.4 0 Calma 3 Nordeste 0 -- -- 62
2017-08-20 23:00:00 22.8 0 Calma 6 Nordeste 0 -- -- 56
2017-08-20 22:00:00 24.8 7 Este 18 Este 0 -- -- 50
2017-08-20 21:00:00 25.7 13 Este 27 Este 0 -- -- 47
2017-08-20 20:00:00 27 17 Este 30 Este 0 -- -- 47
2017-08-20 19:00:00 28.1 21 Este 35 Este 0 -- -- 44
2017-08-20 18:00:00 28.5 24 Este 36 Este 0 -- -- 44
2017-08-20 17:00:00 29.3 23 Este 42 Este 0 -- -- 40
2017-08-20 16:00:00 29.6 27 Este 42 Este 0 -- -- 42
2017-08-20 15:00:00 29.6 27 Este 43 Este 0 -- -- 45
2017-08-20 14:00:00 29.3 24 Este 42 Este 0 -- -- 48
2017-08-20 13:00:00 28.8 23 Este 42 Este 0 -- -- 49
2017-08-20 12:00:00 28.7 16 Este 33 Este 0 -- -- 47
2017-08-20 11:00:00 27.6 15 Nordeste 25 Nordeste 0 -- -- 48
2017-08-20 10:00:00 26.4 15 Nordeste 29 Nordeste 0 -- -- 54
2017-08-20 09:00:00 24.2 10 Nordeste 16 Nordeste 0 -- -- 64
2017-08-20 08:00:00 20.7 5 Nordeste 9 Norte 0 -- -- 79
2017-08-20 07:00:00 20.3 6 Norte 9 Norte 0 -- -- 81
2017-08-20 06:00:00 20.5 7 Norte 9 Norte 0 -- -- 81
2017-08-20 05:00:00 20.8 6 Norte 12 Nordeste 0 -- -- 82
2017-08-20 04:00:00 21.7 6 Nordeste 14 Nordeste 0 -- -- 80
2017-08-20 03:00:00 22.2 9 Nordeste 12 Nordeste 0 -- -- 79
2017-08-20 02:00:00 22.6 7 Nordeste 14 Nordeste 0 -- -- 77
2017-08-20 01:00:00 23 9 Nordeste 13 Nordeste 0 -- -- 75
2017-08-20 00:00:00 23.7 7 Nordeste 11 Nordeste 0 -- -- 72
2017-08-19 23:00:00 24.4 7 Nordeste 12 Nordeste 0 -- -- 69
2017-08-19 22:00:00 25.1 4 Nordeste 15 Este 0 -- -- 67
2017-08-19 21:00:00 26.1 7 Nordeste 24 Este 0 -- -- 60
2017-08-19 20:00:00 27.4 17 Este 30 Este 0 -- -- 55
2017-08-19 19:00:00 28.5 20 Este 32 Este 0 -- -- 54
2017-08-19 18:00:00 29.3 21 Este 35 Este 0 -- -- 55
2017-08-19 17:00:00 29.6 21 Este 35 Este 0 -- -- 58
2017-08-19 16:00:00 30.4 23 Este 37 Este 0 -- -- 52
2017-08-19 15:00:00 30.9 23 Este 35 Sudeste 0 -- -- 51
2017-08-19 14:00:00 31.4 21 Este 38 Este 0 -- -- 49
2017-08-19 13:00:00 30.8 26 Este 36 Este 0 -- -- 50
2017-08-19 12:00:00 30.2 21 Este 35 Este 0 -- -- 55
2017-08-19 11:00:00 29.1 20 Nordeste 32 Nordeste 0 -- -- 60
2017-08-19 10:00:00 27.8 22 Nordeste 35 Nordeste 0 -- -- 65
2017-08-19 09:00:00 26.3 19 Nordeste 33 Nordeste 0 -- -- 73
2017-08-19 08:00:00 24 8 Nordeste 16 Nordeste 0 -- -- 86
2017-08-19 07:00:00 23 9 Norte 18 Nordeste 0 -- -- 87
2017-08-19 06:00:00 23 9 Nordeste 17 Nordeste 0 -- -- 89
2017-08-19 05:00:00 22.4 11 Nordeste 16 Nordeste 0 -- -- 89
2017-08-19 04:00:00 22.1 3 Nordeste 8 Norte 0 -- -- 89
2017-08-19 03:00:00 21.4 6 Norte 9 Norte 0 -- -- 88
2017-08-19 02:00:00 21.2 0 Calma 3 Norte 0 -- -- 85
2017-08-19 01:00:00 22 2 Sudoeste 4 Sudeste 0 -- -- 86
2017-08-19 00:00:00 22.8 0 Calma 5 Noroeste 0 -- -- 84
2017-08-18 23:00:00 24.4 2 Norte 5 Sudeste 0 -- -- 83
2017-08-18 22:00:00 26.2 0 Calma 10 Sudeste 0 -- -- 78
2017-08-18 21:00:00 27.2 8 Sudeste 13 Sudeste 0 -- -- 73
2017-08-18 20:00:00 29.4 9 Sudeste 22 Sudeste 0 -- -- 60
2017-08-18 19:00:00 30.5 12 Sur 19 Sur 0 -- -- 58
2017-08-18 18:00:00 31.2 12 Sudoeste 18 Sudoeste 0 -- -- 52
2017-08-18 17:00:00 31.4 12 Sur 20 Sur 0 -- -- 52
2017-08-18 16:00:00 31.9 10 Sudoeste 23 Sudoeste 0 -- -- 57
2017-08-18 15:00:00 31.9 15 Sur 24 Sur 0 -- -- 45
2017-08-18 14:00:00 32.6 14 Sur 22 Sudeste 0 -- -- 47
2017-08-18 13:00:00 32.8 11 Sudeste 26 Sudeste 0 -- -- 46
2017-08-18 12:00:00 31.5 13 Sudeste 21 Sudoeste 0 -- -- 53
2017-08-18 11:00:00 30 11 Oeste 17 Oeste 0 -- -- 64
2017-08-18 10:00:00 28.1 3 Noroeste 6 Noroeste 0 -- -- 62
2017-08-18 09:00:00 24.2 3 Noroeste 5 Norte 0 -- -- 77
2017-08-18 08:00:00 20.3 0 Calma -- -- 0 -- -- 87
2017-08-18 07:00:00 19 0 Calma -- -- 0 -- -- 87
2017-08-18 06:00:00 19.4 0 Calma -- -- 0 -- -- 87
2017-08-18 05:00:00 20 0 Calma -- -- 0 -- -- 85
2017-08-18 04:00:00 21.1 0 Calma 4 Norte 0 -- -- 80
2017-08-18 03:00:00 21.2 0 Calma -- -- 0 -- -- 84
2017-08-18 02:00:00 22.9 0 Calma 6 Noroeste 0 -- -- 80
2017-08-18 01:00:00 24 0 Calma 12 Este 0 -- -- 83
2017-08-18 00:00:00 24.3 9 Este 10 Sudeste 0 -- -- 82
2017-08-17 23:00:00 24.2 0 Calma 4 Sudeste 0 -- -- 77
2017-08-17 22:00:00 26.1 0 Calma 5 Sudeste 0 -- -- 73
2017-08-17 21:00:00 27.5 5 Sudeste 17 Sudeste 0 -- -- 69
2017-08-17 20:00:00 29.2 13 Sudeste 28 Sudeste 0 -- -- 53
2017-08-17 19:00:00 30.6 19 Sudeste 30 Sudeste 0 -- -- 48
2017-08-17 18:00:00 31.7 22 Sudeste 30 Este 0 -- -- 42
2017-08-17 17:00:00 32.1 23 Sudeste 35 Sudeste 0 -- -- 39
2017-08-17 16:00:00 32.7 26 Sudeste 36 Este 0 -- -- 38
2017-08-17 15:00:00 33.3 19 Este 33 Sudeste 0 -- -- 36
2017-08-17 14:00:00 33.4 21 Este 31 Sudeste 0 -- -- 35
2017-08-17 13:00:00 33.3 17 Este 27 Este 0 -- -- 36
2017-08-17 12:00:00 32.3 12 Este 22 Este 0 -- -- 41
2017-08-17 11:00:00 31.1 15 Este 26 Este 0 -- -- 42
2017-08-17 10:00:00 29 9 Nordeste 18 Nordeste 0 -- -- 54
2017-08-17 09:00:00 25.2 8 Nordeste 12 Norte 0 -- -- 77
2017-08-17 08:00:00 22.9 5 Nordeste 14 Nordeste 0 -- -- 87
2017-08-17 07:00:00 22.4 9 Nordeste 13 Nordeste 0 -- -- 91
2017-08-17 06:00:00 23.1 9 Nordeste 17 Nordeste 0 -- -- 88
2017-08-17 05:00:00 23.4 9 Nordeste 15 Nordeste 0 -- -- 88
2017-08-17 04:00:00 23.2 8 Nordeste 13 Nordeste 0 -- -- 89
2017-08-17 03:00:00 23.3 4 Norte 7 Nordeste 0 -- -- 87
2017-08-17 02:00:00 23.7 3 Nordeste 6 Nordeste 0 -- -- 84
2017-08-17 01:00:00 25 4 Nordeste 6 Este 0 -- -- 84
2017-08-17 00:00:00 25.6 2 Nordeste 13 Este 0 -- -- 82
2017-08-16 23:00:00 25.9 5 Este 12 Nordeste 0 -- -- 81
2017-08-16 22:00:00 26.7 9 Este 22 Este 0 -- -- 79
2017-08-16 21:00:00 27.4 14 Este 26 Este 0 -- -- 73
2017-08-16 20:00:00 28.6 18 Este 33 Este 0 -- -- 68
2017-08-16 19:00:00 30.3 19 Sudeste 27 Sudeste 0 -- -- 64
2017-08-16 18:00:00 31.6 19 Sudeste 28 Este 0 -- -- 57
2017-08-16 17:00:00 32.1 17 Este 28 Sudeste 0 -- -- 58
2017-08-16 16:00:00 32.7 17 Este 27 Este 0 -- -- 54
2017-08-16 15:00:00 31.8 18 Este 29 Este 0 -- -- 58
2017-08-16 14:00:00 31.9 17 Este 31 Sudeste 0 -- -- 60
2017-08-16 13:00:00 32.2 17 Este 30 Este 0 -- -- 56
2017-08-16 12:00:00 30.8 19 Este 32 Este 0 -- -- 62
2017-08-16 11:00:00 30.6 16 Este 26 Este 0 -- -- 66
2017-08-16 10:00:00 28.8 10 Nordeste 20 Nordeste 0 -- -- 70
2017-08-16 09:00:00 26.5 9 Nordeste 14 Nordeste 0 -- -- 83
2017-08-16 08:00:00 24.3 7 Norte 17 Este 0 -- -- 92
2017-08-16 07:00:00 23.7 10 Nordeste 15 Nordeste 0 -- -- 94
2017-08-16 06:00:00 23.8 6 Norte 12 Nordeste 0 -- -- 93
2017-08-16 05:00:00 23.6 7 Nordeste 15 Nordeste 0 -- -- 93
2017-08-16 04:00:00 24 8 Nordeste 12 Nordeste 0 -- -- 92
2017-08-16 03:00:00 24.4 4 Nordeste 8 Nordeste 0 -- -- 91
2017-08-16 02:00:00 24.7 5 Este 12 Nordeste 0 -- -- 91
2017-08-16 01:00:00 25.3 6 Nordeste 13 Nordeste 0 -- -- 90
2017-08-16 00:00:00 25.4 6 Este 16 Nordeste 0 -- -- 87
2017-08-15 23:00:00 26.1 8 Nordeste 20 Este 0 -- -- 87
2017-08-15 22:00:00 26.4 7 Nordeste 18 Nordeste 0 -- -- 86
2017-08-15 21:00:00 27.1 9 Este 21 Este 0 -- -- 83
2017-08-15 20:00:00 29 10 Este 29 Este 0 -- -- 72
2017-08-15 19:00:00 30.4 14 Este 27 Sudeste 0 -- -- 65
2017-08-15 18:00:00 30.7 20 Este 32 Este 0 -- -- 66
2017-08-15 17:00:00 31.2 24 Este 33 Sudeste 0 -- -- 64
2017-08-15 16:00:00 31.4 20 Este 33 Sudeste 0 -- -- 64
2017-08-15 15:00:00 31 21 Este 36 Este 0 -- -- 64
2017-08-15 14:00:00 31.5 21 Este 31 Este 0 -- -- 61
2017-08-15 13:00:00 30.9 16 Este 31 Este 0 -- -- 64
2017-08-15 12:00:00 29.8 19 Este 31 Sudeste 0 -- -- 68
2017-08-15 11:00:00 29 17 Este 29 Este 0 -- -- 71
2017-08-15 10:00:00 27.9 19 Este 34 Este 0 -- -- 75
2017-08-15 09:00:00 25.6 7 Este 20 Nordeste 0 -- -- 84
2017-08-15 08:00:00 22.8 13 Nordeste 18 Nordeste 0 -- -- 89
2017-08-15 07:00:00 22.3 9 Nordeste 16 Nordeste 0 -- -- 89
2017-08-15 06:00:00 22.8 11 Nordeste 21 Nordeste 0 -- -- 88
2017-08-15 05:00:00 22.1 11 Nordeste 21 Nordeste 0 -- -- 89
2017-08-15 04:00:00 22.6 13 Nordeste 18 Nordeste 0 -- -- 88
2017-08-15 03:00:00 22.4 0 Calma 9 Norte 0 -- -- 88
2017-08-15 02:00:00 23.3 2 Nordeste 8 Nordeste 0 -- -- 87
2017-08-15 01:00:00 23.9 5 Norte 10 Nordeste 0 -- -- 84
2017-08-15 00:00:00 24.4 0 Calma 15 Este 0 -- -- 84
2017-08-14 23:00:00 24.6 8 Este 15 Este 0 -- -- 82
2017-08-14 22:00:00 24.9 10 Nordeste 22 Nordeste 0 -- -- 80
2017-08-14 21:00:00 25.4 13 Este 35 Este 0 -- -- 79
2017-08-14 20:00:00 26.1 20 Este 32 Este 0 -- -- 74
2017-08-14 19:00:00 27.3 16 Este 26 Este 0 -- -- 63
2017-08-14 18:00:00 28.4 15 Este 26 Este 0 -- -- 57
2017-08-14 17:00:00 28.4 16 Este 36 Este 0 -- -- 58
2017-08-14 16:00:00 28 20 Este 44 Sudeste 0 -- -- 62
2017-08-14 15:00:00 29.9 23 Este 39 Sudeste 0 -- -- 56
2017-08-14 14:00:00 30 17 Este 33 Este 0 -- -- 50
2017-08-14 13:00:00 29.3 23 Este 34 Sudeste 0 -- -- 51
2017-08-14 12:00:00 28.4 18 Este 32 Este 0 -- -- 54
2017-08-14 11:00:00 27.9 18 Este 30 Nordeste 0 -- -- 56
2017-08-14 10:00:00 26.5 19 Este 27 Este 0 -- -- 64
2017-08-14 09:00:00 23.3 9 Norte 16 Nordeste 0 -- -- 76
2017-08-14 08:00:00 20.7 11 Nordeste 15 Nordeste 0 -- -- 83
2017-08-14 07:00:00 19.4 10 Nordeste 17 Nordeste 0 -- -- 85
2017-08-14 06:00:00 19.7 11 Nordeste 18 Nordeste 0 -- -- 83
2017-08-14 05:00:00 20.2 10 Nordeste 18 Nordeste 0 -- -- 81
2017-08-14 04:00:00 20.3 9 Nordeste 14 Norte 0 -- -- 80
2017-08-14 03:00:00 20.7 9 Nordeste 15 Nordeste 0 -- -- 79
2017-08-14 02:00:00 19.6 5 Nordeste 9 Nordeste 0 -- -- 81
2017-08-14 01:00:00 20.7 4 Nordeste 8 Nordeste 0 -- -- 77
2017-08-14 00:00:00 21.2 0 Calma 7 Nordeste 0 -- -- 75
2017-08-13 23:00:00 23.3 5 Nordeste 9 Este 0 -- -- 71
2017-08-13 22:00:00 24.2 5 Nordeste 18 Este 0 -- -- 69
2017-08-13 21:00:00 25.2 11 Este 28 Sudeste 0 -- -- 69
2017-08-13 20:00:00 26.9 20 Este 33 Este 0 -- -- 61
2017-08-13 19:00:00 27.9 24 Este 39 Este 0 -- -- 55
2017-08-13 18:00:00 29.1 24 Este 39 Este 0 -- -- 52
2017-08-13 17:00:00 29.8 23 Este 41 Este 0 -- -- 52
2017-08-13 16:00:00 29.9 24 Este 43 Este 0 -- -- 51
2017-08-13 15:00:00 29.9 24 Este 41 Sudeste 0 -- -- 51
2017-08-13 14:00:00 29.6 24 Sudeste 35 Sudeste 0 -- -- 53
2017-08-13 13:00:00 29.1 12 Este 26 Nordeste 0 -- -- 53
2017-08-13 12:00:00 28.5 11 Nordeste 23 Este 0 -- -- 51
2017-08-13 11:00:00 26.3 8 Nordeste 19 Norte 0 -- -- 61
2017-08-13 10:00:00 25.4 10 Norte 17 Nordeste 0 -- -- 64
2017-08-13 09:00:00 21.9 0 Calma -- -- 0 -- -- 81
2017-08-13 08:00:00 18.6 0 Calma 3 Sur 0 -- -- 90
2017-08-13 07:00:00 16.9 0 Calma 5 Norte 0 -- -- 90
2017-08-13 06:00:00 17 0 Calma 3 Noroeste 0 -- -- 90
2017-08-13 05:00:00 17.2 0 Calma 3 Sudeste 0 -- -- 89
2017-08-13 04:00:00 17.6 0 Calma 2 Sur 0 -- -- 88
2017-08-13 03:00:00 18.3 0 Calma 4 Nordeste 0 -- -- 86
2017-08-13 02:00:00 20 0 Calma 5 Norte 0 -- -- 82
2017-08-13 01:00:00 20.7 3 Este 5 Sudeste 0 -- -- 81
2017-08-13 00:00:00 22.4 5 Sudeste 9 Sudeste 0 -- -- 76
2017-08-12 23:00:00 22.1 6 Sudeste 8 Sudeste 0 -- -- 75
2017-08-12 22:00:00 23.4 6 Sudeste 11 Sudeste 0 -- -- 71
2017-08-12 21:00:00 25 7 Sur 15 Sur 0 -- -- 64
2017-08-12 20:00:00 25.5 12 Sur 19 Sur 0 -- -- 62
2017-08-12 19:00:00 27 13 Sur 21 Sudoeste 0 -- -- 58
2017-08-12 18:00:00 27.5 13 Sur 23 Sur 0 -- -- 56
2017-08-12 17:00:00 27.9 14 Sur 26 Sur 0 -- -- 55
2017-08-12 16:00:00 27.6 15 Sur 26 Sur 0 -- -- 55
2017-08-12 15:00:00 26.2 13 Sur 26 Sudeste 0 -- -- 58
2017-08-12 14:00:00 26.1 14 Sur 30 Sur 0 -- -- 59
2017-08-12 13:00:00 27.3 18 Sudeste 30 Sudeste 0 -- -- 56
2017-08-12 12:00:00 27.1 16 Este 25 Sudeste 0 -- -- 56
2017-08-12 11:00:00 26.5 16 Sudeste 27 Sudeste 0 -- -- 58
2017-08-12 10:00:00 25.6 15 Sudeste 23 Sudeste 0 -- -- 61
2017-08-12 09:00:00 22.7 6 Norte 11 Nordeste 0 -- -- 75
2017-08-12 08:00:00 19.6 9 Nordeste 13 Nordeste 0 -- -- 85
2017-08-12 07:00:00 18.9 7 Nordeste 12 Norte 0 -- -- 87
2017-08-12 06:00:00 19 8 Nordeste 12 Norte 0 -- -- 87
2017-08-12 05:00:00 19.5 10 Norte 12 Nordeste 0 -- -- 87
2017-08-12 04:00:00 20.6 6 Nordeste 13 Norte 0 -- -- 83
2017-08-12 03:00:00 21.7 8 Nordeste 19 Nordeste 0 -- -- 79
2017-08-12 02:00:00 22.8 10 Este 24 Este 0 -- -- 76
2017-08-12 01:00:00 23.1 17 Este 28 Nordeste 0 -- -- 76
2017-08-12 00:00:00 23.1 14 Este 24 Este 0 -- -- 77
2017-08-11 23:00:00 22 7 Nordeste 9 Norte 0 -- -- 81
2017-08-11 22:00:00 23.3 9 Nordeste 18 Este 0 -- -- 75
2017-08-11 21:00:00 25 10 Este 28 Oeste 0 -- -- 61
2017-08-11 20:00:00 25.6 19 Oeste 31 Oeste 0 -- -- 58
2017-08-11 19:00:00 26.3 21 Oeste 33 Oeste 0 -- -- 56
2017-08-11 18:00:00 26.9 24 Oeste 35 Oeste 0 -- -- 56
2017-08-11 17:00:00 26.8 24 Oeste 33 Oeste 0 -- -- 55
2017-08-11 16:00:00 26.8 18 Oeste 28 Oeste 0 -- -- 56
2017-08-11 15:00:00 27.5 20 Oeste 30 Oeste 0 -- -- 53
2017-08-11 14:00:00 27.4 17 Sudoeste 31 Sudoeste 0 -- -- 54
2017-08-11 13:00:00 27.8 14 Sudoeste 26 Oeste 0 -- -- 51
2017-08-11 12:00:00 27.6 9 Oeste 17 Oeste 0 -- -- 51
2017-08-11 11:00:00 25.2 9 Noroeste 18 Noroeste 0 -- -- 57
2017-08-11 10:00:00 24.3 0 Calma 9 Norte 0 -- -- 67
2017-08-11 09:00:00 20.5 5 Norte 12 Noroeste 0 -- -- 85
2017-08-11 08:00:00 16.9 3 Noroeste 4 Noroeste 0 -- -- 93
2017-08-11 07:00:00 14.3 0 Calma 3 Nordeste 0 -- -- 94
2017-08-11 06:00:00 14.9 2 Norte 6 Sudeste 0 -- -- 94
2017-08-11 05:00:00 14.5 0 Calma 3 Sur 0 -- -- 93
2017-08-11 04:00:00 14.8 0 Calma 5 Norte 0 -- -- 93
2017-08-11 03:00:00 15.1 0 Calma 3 Sudeste 0 -- -- 92
2017-08-11 02:00:00 15.4 0 Calma 2 Norte 0 -- -- 91
2017-08-11 01:00:00 16 0 Calma 3 Sudoeste 0 -- -- 89
2017-08-11 00:00:00 16.6 0 Calma 4 Sur 0 -- -- 86
2017-08-10 23:00:00 18.2 0 Calma 5 Sudeste 0 -- -- 82
2017-08-10 22:00:00 19.1 3 Sudeste 5 Sudeste 0 -- -- 76
2017-08-10 21:00:00 22.1 3 Sur 17 Sudeste 0 -- -- 66
2017-08-10 20:00:00 23.8 11 Sudeste 25 Sudeste 0 -- -- 55
2017-08-10 19:00:00 24.3 17 Este 28 Sudeste 0 -- -- 54
2017-08-10 18:00:00 24.7 17 Este 28 Este 0 -- -- 54
2017-08-10 17:00:00 25.4 18 Sudeste 32 Este 0 -- -- 52
2017-08-10 16:00:00 24.4 14 Este 24 Este 0 -- -- 57
2017-08-10 15:00:00 24.4 12 Nordeste 23 Nordeste 0 -- -- 59
2017-08-10 14:00:00 22.5 12 Nordeste 23 Nordeste 0 -- -- 67
2017-08-10 13:00:00 20.9 7 Nordeste 15 Norte 0 -- -- 83
2017-08-10 12:00:00 19.9 10 Nordeste 24 Nordeste 0 -- -- 86
2017-08-10 11:00:00 19.8 9 Nordeste 21 Este 0.2 -- -- 89
2017-08-10 10:00:00 19 15 Este 22 Este 2 -- -- 90
2017-08-10 09:00:00 20.1 7 Norte 12 Este 0 -- -- 88
2017-08-10 08:00:00 19 8 Nordeste 12 Nordeste 1.2 -- -- 90
2017-08-10 07:00:00 19.7 9 Nordeste 24 Nordeste 0.2 -- -- 85
2017-08-10 06:00:00 19.4 10 Nordeste 36 Nordeste 0.6 -- -- 87
2017-08-10 05:00:00 19.4 25 Norte 41 Nordeste 1.6 -- -- 87
2017-08-10 04:00:00 22.1 25 Nordeste 46 Nordeste 0 -- -- 68
2017-08-10 03:00:00 22.9 27 Nordeste 42 Nordeste 0 -- -- 65
2017-08-10 02:00:00 23.3 23 Nordeste 36 Nordeste 0 -- -- 67
2017-08-10 01:00:00 23.8 15 Nordeste 26 Nordeste 0 -- -- 64
2017-08-10 00:00:00 24.3 13 Nordeste 23 Nordeste 0 -- -- 67
2017-08-09 23:00:00 25 11 Nordeste 21 Este 0 -- -- 64
2017-08-09 22:00:00 25.1 12 Este 26 Este 0 -- -- 61
2017-08-09 21:00:00 25.4 14 Nordeste 29 Este 0 -- -- 64
2017-08-09 20:00:00 25.9 18 Este 35 Este 0 -- -- 64
2017-08-09 19:00:00 27.7 18 Nordeste 32 Este 0 -- -- 61
2017-08-09 18:00:00 27.5 18 Nordeste 30 Este 0 -- -- 61
2017-08-09 17:00:00 27.7 18 Este 35 Este 0 -- -- 58
2017-08-09 16:00:00 27.4 21 Este 36 Este 0 -- -- 59
2017-08-09 15:00:00 27.7 21 Este 37 Este 0 -- -- 58
2017-08-09 14:00:00 28 22 Este 34 Este 0 -- -- 59
2017-08-09 13:00:00 28.3 22 Sudeste 33 Este 0 -- -- 59
2017-08-09 12:00:00 27.7 17 Este 36 Este 0 -- -- 61
2017-08-09 11:00:00 27.4 17 Este 30 Este 0 -- -- 63
2017-08-09 10:00:00 25.9 18 Este 29 Este 0 -- -- 67
2017-08-09 09:00:00 25.6 19 Este 31 Este 0 -- -- 68
2017-08-09 08:00:00 22.9 5 Nordeste 8 Nordeste 0 -- -- 77
2017-08-09 07:00:00 22.8 5 Nordeste 15 Nordeste 0 -- -- 75
2017-08-09 06:00:00 23.1 8 Nordeste 19 Nordeste 0 -- -- 73
2017-08-09 05:00:00 23.1 8 Nordeste 19 Nordeste 0 -- -- 73
2017-08-09 04:00:00 23.3 13 Norte 21 Nordeste 0 -- -- 73
2017-08-09 03:00:00 23.7 9 Nordeste 21 Nordeste 0 -- -- 74
2017-08-09 02:00:00 24.2 10 Nordeste 26 Nordeste 0 -- -- 75
2017-08-09 01:00:00 24.5 12 Nordeste 29 Norte 0 -- -- 79
2017-08-09 00:00:00 24.9 14 Nordeste 30 Nordeste 0 -- -- 78
2017-08-08 23:00:00 25.3 15 Nordeste 28 Nordeste 0 -- -- 78
2017-08-08 22:00:00 25.9 19 Nordeste 39 Nordeste 0 -- -- 80
2017-08-08 21:00:00 26.3 26 Nordeste 41 Nordeste 0 -- -- 80
2017-08-08 20:00:00 28.3 27 Norte 36 Nordeste 0 -- -- 75
2017-08-08 19:00:00 30.5 20 Nordeste 32 Nordeste 0 -- -- 71
2017-08-08 18:00:00 32 18 Este 29 Este 0 -- -- 68
2017-08-08 17:00:00 30.4 14 Sudoeste 30 Oeste 0 -- -- 75
2017-08-08 16:00:00 30.8 19 Oeste 32 Sudoeste 0 -- -- 74
2017-08-08 15:00:00 31 18 Sudoeste 30 Sudoeste 0 -- -- 73
2017-08-08 14:00:00 31.2 14 Sudoeste 24 Sudoeste 0 -- -- 71
2017-08-08 13:00:00 30.7 13 Sudoeste 24 Sudoeste 0 -- -- 72
2017-08-08 12:00:00 30.5 13 Oeste 22 Sudoeste 0 -- -- 75
2017-08-08 11:00:00 29.9 14 Sudoeste 22 Sudoeste 0 -- -- 78
2017-08-08 10:00:00 29.1 11 Sudoeste 20 Sudoeste 0 -- -- 81
2017-08-08 09:00:00 28.2 12 Sur 17 Sur 0 -- -- 86
2017-08-08 08:00:00 26.3 9 Nordeste 16 Sudeste 0 -- -- 90
2017-08-08 07:00:00 26.4 0 Calma 17 Noroeste 0 -- -- 90
2017-08-08 06:00:00 25.7 14 Sur 23 Sudeste 0 -- -- 91
2017-08-08 05:00:00 25.1 5 Oeste 15 Noroeste 0 -- -- 90
2017-08-08 04:00:00 25.1 4 Sudeste 12 Sudeste 0 -- -- 90
2017-08-08 03:00:00 25 3 Sudeste 13 Sudeste 0 -- -- 90
2017-08-08 02:00:00 24.9 0 Calma 12 Sudeste 0 -- -- 89
2017-08-08 01:00:00 24.4 5 Sudeste 8 Sudeste 0 -- -- 86
2017-08-08 00:00:00 24.8 5 Sudeste 8 Sudeste 0 -- -- 82
2017-08-07 23:00:00 25.9 2 Sudeste 8 Sur 0 -- -- 79
2017-08-07 22:00:00 27.1 4 Sur 11 Sudeste 0 -- -- 77
2017-08-07 21:00:00 28 9 Sudeste 19 Sudeste 0 -- -- 73
2017-08-07 20:00:00 29.7 14 Sudeste 22 Sudeste 0 -- -- 66
2017-08-07 19:00:00 30.8 15 Sudeste 28 Sudeste 0 -- -- 60
2017-08-07 18:00:00 31.4 19 Sudeste 29 Sudeste 0 -- -- 57
2017-08-07 17:00:00 32.4 15 Sudeste 29 Sudeste 0 -- -- 52
2017-08-07 16:00:00 33.1 21 Sudeste 30 Sudeste 0 -- -- 47
2017-08-07 15:00:00 32.8 16 Sur 29 Sudeste 0 -- -- 48
2017-08-07 14:00:00 32.1 17 Sudeste 33 Este 0 -- -- 53
2017-08-07 13:00:00 32.1 20 Sudeste 30 Sudeste 0 -- -- 49
2017-08-07 12:00:00 31.8 15 Sudeste 27 Sudeste 0 -- -- 52
2017-08-07 11:00:00 31.5 9 Sudeste 17 Sudeste 0 -- -- 49
2017-08-07 10:00:00 29.2 8 Este 14 Este 0 -- -- 58
2017-08-07 09:00:00 25.9 8 Nordeste 13 Nordeste 0 -- -- 73
2017-08-07 08:00:00 23.2 7 Nordeste 13 Nordeste 0 -- -- 81
2017-08-07 07:00:00 22.2 7 Norte 11 Nordeste 0 -- -- 85
2017-08-07 06:00:00 22.8 8 Nordeste 18 Nordeste 0 -- -- 84
2017-08-07 05:00:00 23.1 10 Nordeste 15 Nordeste 0 -- -- 83
2017-08-07 04:00:00 23.4 8 Nordeste 14 Nordeste 0 -- -- 81
2017-08-07 03:00:00 23.5 6 Nordeste 14 Nordeste 0 -- -- 80
2017-08-07 02:00:00 24.3 8 Nordeste 13 Nordeste 0 -- -- 78
2017-08-07 01:00:00 24.6 8 Nordeste 13 Nordeste 0 -- -- 77
2017-08-07 00:00:00 25.3 7 Nordeste 15 Nordeste 0 -- -- 75
2017-08-06 23:00:00 26 10 Nordeste 14 Norte 0 -- -- 72
2017-08-06 22:00:00 27.2 7 Nordeste 15 Este 0 -- -- 66
2017-08-06 21:00:00 28.7 8 Este 20 Este 0 -- -- 62
2017-08-06 20:00:00 31 16 Este 26 Este 0 -- -- 57
2017-08-06 19:00:00 32.2 19 Este 31 Este 0 -- -- 50
2017-08-06 18:00:00 33 21 Este 35 Sudeste 0 -- -- 45
2017-08-06 17:00:00 33.2 22 Este 33 Este 0 -- -- 48
2017-08-06 16:00:00 33.2 22 Este 40 Este 0 -- -- 46
2017-08-06 15:00:00 32.8 23 Este 34 Este 0 -- -- 51
2017-08-06 14:00:00 32.7 22 Este 36 Este 0 -- -- 52
2017-08-06 13:00:00 32.4 25 Este 41 Este 0 -- -- 53
2017-08-06 12:00:00 31.3 20 Nordeste 37 Nordeste 0 -- -- 57
2017-08-06 11:00:00 30.4 19 Nordeste 37 Nordeste 0 -- -- 63
2017-08-06 10:00:00 29.2 20 Nordeste 32 Nordeste 0 -- -- 69
2017-08-06 09:00:00 27.5 16 Nordeste 26 Nordeste 0 -- -- 75
2017-08-06 08:00:00 25.5 10 Norte 14 Nordeste 0 -- -- 81
2017-08-06 07:00:00 25.1 7 Nordeste 16 Nordeste 0 -- -- 77
2017-08-06 06:00:00 24.7 8 Nordeste 14 Nordeste 0 -- -- 81
2017-08-06 05:00:00 25.6 8 Nordeste 11 Nordeste 0 -- -- 82
2017-08-06 04:00:00 26.1 6 Nordeste 10 Nordeste 0 -- -- 86
2017-08-06 03:00:00 25.6 6 Nordeste 10 Nordeste 0 -- -- 84
2017-08-06 02:00:00 24.3 0 Calma 7 Norte 0 -- -- 77
2017-08-06 01:00:00 26 0 Calma 8 Nordeste 0 -- -- 74
2017-08-06 00:00:00 26.9 4 Nordeste 9 Este 0 -- -- 71
2017-08-05 23:00:00 27.7 3 Nordeste 15 Sudeste 0 -- -- 72
2017-08-05 22:00:00 28.5 8 Este 12 Este 0 -- -- 70
2017-08-05 21:00:00 29.4 6 Sudeste 19 Sudeste 0 -- -- 68
2017-08-05 20:00:00 31.2 12 Sudeste 28 Sudeste 0 -- -- 59
2017-08-05 19:00:00 32.4 19 Sudeste 31 Sudeste 0 -- -- 55
2017-08-05 18:00:00 34.1 18 Sudeste 33 Sudeste 0 -- -- 53
2017-08-05 17:00:00 34.2 25 Sudeste 37 Sudeste 0 -- -- 48
2017-08-05 16:00:00 34.6 27 Sudeste 50 Sudeste 0 -- -- 46
2017-08-05 15:00:00 35.5 25 Sudeste 35 Este 0 -- -- 42
2017-08-05 14:00:00 36.2 19 Sudeste 30 Sudeste 0 -- -- 40
2017-08-05 13:00:00 35.3 21 Sudeste 33 Sudeste 0 -- -- 41
2017-08-05 12:00:00 35.1 20 Este 32 Este 0 -- -- 39
2017-08-05 11:00:00 34.1 15 Este 31 Nordeste 0 -- -- 43
2017-08-05 10:00:00 31.1 12 Nordeste 17 Nordeste 0 -- -- 56
2017-08-05 09:00:00 28.3 11 Nordeste 17 Nordeste 0 -- -- 66
2017-08-05 08:00:00 25.5 9 Nordeste 15 Nordeste 0 -- -- 79
2017-08-05 07:00:00 24.2 10 Nordeste 15 Nordeste 0 -- -- 85
2017-08-05 06:00:00 23 3 Norte 6 Norte 0 -- -- 90
2017-08-05 05:00:00 23.2 3 Norte 8 Norte 0 -- -- 88
2017-08-05 04:00:00 23.4 3 Sur 6 Sur 0 -- -- 89
2017-08-05 03:00:00 25.3 2 Norte 6 Nordeste 0 -- -- 86
2017-08-05 02:00:00 25.5 2 Norte 5 Norte 0 -- -- 87
2017-08-05 01:00:00 25.8 0 Calma 6 Norte 0 -- -- 83
2017-08-05 00:00:00 26.4 0 Calma 4 Norte 0 -- -- 84
2017-08-04 23:00:00 27.7 2 Sudeste 5 Sudeste 0 -- -- 82
2017-08-04 22:00:00 28.7 3 Sur 8 Sudeste 0 -- -- 80
2017-08-04 21:00:00 29.7 6 Sudeste 14 Sudeste 0 -- -- 74
2017-08-04 20:00:00 31.5 10 Sudeste 18 Sudeste 0 -- -- 65
2017-08-04 19:00:00 32.1 10 Sudeste 21 Sur 0 -- -- 65
2017-08-04 18:00:00 32.4 11 Sur 19 Sur 0 -- -- 69
2017-08-04 17:00:00 31.8 14 Sudoeste 22 Oeste 0 -- -- 72
2017-08-04 16:00:00 32 15 Oeste 25 Sudoeste 0 -- -- 73
2017-08-04 15:00:00 33 10 Sudoeste 23 Oeste 0 -- -- 59
2017-08-04 14:00:00 32.5 12 Sudoeste 22 Sudoeste 0 -- -- 66
2017-08-04 13:00:00 32 14 Sudoeste 25 Oeste 0 -- -- 72
2017-08-04 12:00:00 31.7 12 Sudoeste 19 Oeste 0 -- -- 70
2017-08-04 11:00:00 30.9 12 Oeste 16 Oeste 0 -- -- 77
2017-08-04 10:00:00 29.8 9 Oeste 12 Oeste 0 -- -- 81
2017-08-04 09:00:00 27 3 Noroeste 6 Norte 0 -- -- 87
2017-08-04 08:00:00 25.2 0 Calma 6 Sudeste 0 -- -- 94
2017-08-04 07:00:00 24 0 Calma 8 Sur 0 -- -- 94
2017-08-04 06:00:00 23.2 3 Sur 5 Sur 0 -- -- 92
2017-08-04 05:00:00 24.7 0 Calma -- -- 0 -- -- 93
2017-08-04 04:00:00 26 0 Calma 5 Norte 0 -- -- 94
2017-08-04 03:00:00 26.3 0 Calma 10 Oeste 0 -- -- 93
2017-08-04 02:00:00 26 0 Calma 6 Sudeste 0 -- -- 92
2017-08-04 01:00:00 26.1 5 Sur 8 Sur 0 -- -- 92
2017-08-04 00:00:00 26.6 4 Sudeste 7 Sudeste 0 -- -- 89
2017-08-03 23:00:00 27.5 3 Sur 6 Sur 0 -- -- 89
2017-08-03 22:00:00 28.5 4 Sudoeste 11 Sudoeste 0 -- -- 90
2017-08-03 21:00:00 29.1 6 Sudoeste 15 Sudoeste 0 -- -- 87
2017-08-03 20:00:00 30.6 10 Sudoeste 17 Sudoeste 0 -- -- 75
2017-08-03 19:00:00 32.3 6 Sudoeste 18 Sudoeste 0 -- -- 71
2017-08-03 18:00:00 33.1 13 Sur 22 Sur 0 -- -- 63
2017-08-03 17:00:00 34.5 14 Sur 23 Sur 0 -- -- 52
2017-08-03 16:00:00 36.4 14 Sur 32 Sur 0 -- -- 46
2017-08-03 15:00:00 36.8 17 Sudeste 28 Sur 0 -- -- 44
2017-08-03 14:00:00 38.9 10 Sudeste 24 Sudeste 0 -- -- 30
2017-08-03 13:00:00 34 18 Oeste 25 Oeste 0 -- -- 54
2017-08-03 12:00:00 36.5 9 Este 21 Nordeste 0 -- -- 38
2017-08-03 11:00:00 34.5 13 Este 25 Sudeste 0 -- -- 44
2017-08-03 10:00:00 32.7 19 Sudeste 28 Sudeste 0 -- -- 55
2017-08-03 09:00:00 31.8 11 Sur 22 Sudeste 0 -- -- 48
2017-08-03 08:00:00 28.2 5 Este 10 Nordeste 0 -- -- 57
2017-08-03 07:00:00 27.8 5 Nordeste 12 Noroeste 0 -- -- 54
2017-08-03 06:00:00 29.3 5 Norte 19 Nordeste 0 -- -- 54
2017-08-03 05:00:00 30.4 9 Este 26 Este 0 -- -- 47
2017-08-03 04:00:00 31.1 21 Este 60 Sudeste 0 -- -- 47
2017-08-03 03:00:00 32 26 Sudeste 39 Este 0 -- -- 41
2017-08-03 02:00:00 27.7 10 Nordeste 29 Noroeste 0.4 -- -- 65
2017-08-03 01:00:00 29 8 Este 37 Sudeste 0 -- -- 72
2017-08-03 00:00:00 30 19 Sudeste 31 Este 0 -- -- 59
2017-08-02 23:00:00 31.3 20 Este 31 Este 0 -- -- 47
2017-08-02 22:00:00 30.2 12 Este 27 Este 0 -- -- 62
2017-08-02 21:00:00 30.3 13 Este 23 Este 0 -- -- 72
2017-08-02 20:00:00 31 16 Sudeste 27 Sudeste 0 -- -- 72
2017-08-02 19:00:00 32.6 16 Sudeste 29 Sudeste 0 -- -- 67
2017-08-02 18:00:00 36.1 13 Sudeste 22 Sudeste 0 -- -- 50
2017-08-02 17:00:00 36.5 15 Sudeste 26 Sudeste 0 -- -- 46
2017-08-02 16:00:00 36.3 13 Sudeste 28 Sudeste 0 -- -- 45
2017-08-02 15:00:00 37 20 Sudeste 27 Sudeste 0 -- -- 46
2017-08-02 14:00:00 37.6 8 Sudeste 26 Sudeste 0 -- -- 41
2017-08-02 13:00:00 35.8 15 Sur 21 Sudeste 0 -- -- 48
2017-08-02 12:00:00 35.6 9 Sudeste 23 Este 0 -- -- 47
2017-08-02 11:00:00 33.7 17 Sudeste 26 Este 0 -- -- 56
2017-08-02 10:00:00 31 6 Noroeste 9 Noroeste 0 -- -- 69
2017-08-02 09:00:00 28.7 7 Norte 10 Norte 0 -- -- 77
2017-08-02 08:00:00 26.6 7 Norte 10 Norte 0 -- -- 83
2017-08-02 07:00:00 26.4 5 Nordeste 8 Nordeste 0 -- -- 83
2017-08-02 06:00:00 27.6 4 Sur 12 Sur 0 -- -- 81
2017-08-02 05:00:00 28.1 6 Sudeste 14 Sudeste 0 -- -- 74
2017-08-02 04:00:00 28.3 10 Sudeste 15 Sudeste 0 -- -- 67
2017-08-02 03:00:00 29.1 10 Nordeste 23 Nordeste 0 -- -- 57
2017-08-02 02:00:00 28.8 10 Norte 16 Nordeste 0 -- -- 61
2017-08-02 01:00:00 29.3 9 Sudeste 13 Este 0 -- -- 57
2017-08-02 00:00:00 29.3 4 Nordeste 14 Nordeste 0 -- -- 58
2017-08-01 23:00:00 30.5 5 Nordeste 36 Nordeste 0 -- -- 58
2017-08-01 22:00:00 30.4 21 Este 35 Sudoeste 0.2 -- -- 63
2017-08-01 21:00:00 31.6 14 Norte 30 Nordeste 0 -- -- 62
2017-08-01 20:00:00 33.8 20 Nordeste 30 Nordeste 0 -- -- 54
2017-08-01 19:00:00 34.2 19 Norte 35 Nordeste 0 -- -- 57
2017-08-01 18:00:00 36.3 13 Nordeste 19 Nordeste 0 -- -- 46
2017-08-01 17:00:00 31.8 6 Nordeste 27 Sudoeste 0 -- -- 63
2017-08-01 16:00:00 33.5 6 Sudoeste 29 Oeste 0 -- -- 61
2017-08-01 15:00:00 31.4 17 Sudoeste 30 Oeste 0 -- -- 74
2017-08-01 14:00:00 33 16 Sudoeste 35 Sudoeste 0 -- -- 64
2017-08-01 13:00:00 32.7 4 Oeste 14 Norte 0 -- -- 61
2017-08-01 12:00:00 31.1 5 Nordeste 33 Sudeste 0 -- -- 71
2017-08-01 11:00:00 29.9 19 Sudeste 36 Sudeste 0 -- -- 82
2017-08-01 10:00:00 30.2 3 Sudoeste 11 Noroeste 0 -- -- 82
2017-08-01 09:00:00 28.1 5 Sudoeste 21 Sudeste 0 -- -- 89
2017-08-01 08:00:00 27.8 12 Sur 31 Sudoeste 0 -- -- 90
2017-08-01 07:00:00 27.5 15 Este 32 Noroeste 0 -- -- 88
2017-08-01 06:00:00 26.8 0 Calma 19 Sudeste 0 -- -- 91
2017-08-01 05:00:00 26.2 4 Este 15 Sudeste 0 -- -- 88
2017-08-01 04:00:00 26.2 5 Nordeste 8 Este 0 -- -- 85
2017-08-01 03:00:00 27.2 5 Nordeste 18 Oeste 0 -- -- 84
2017-08-01 02:00:00 27.1 2 Sudeste 13 Noroeste 0 -- -- 85
2017-08-01 01:00:00 27.6 9 Este 30 Noroeste 0 -- -- 83
2017-08-01 00:00:00 27.7 11 Nordeste 15 Este 0 -- -- 85
2017-07-31 23:00:00 28 3 Este 21 Sudeste 0 -- -- 86
2017-07-31 22:00:00 28 13 Este 31 Este 0 -- -- 84
2017-07-31 21:00:00 29.1 14 Este 23 Este 0 -- -- 77
2017-07-31 20:00:00 31.9 12 Este 22 Este 0 -- -- 59
2017-07-31 19:00:00 33.5 14 Sudeste 28 Sudeste 0 -- -- 44
2017-07-31 18:00:00 33.6 18 Sudeste 25 Sudeste 0 -- -- 47
2017-07-31 17:00:00 35 19 Sudeste 27 Sudeste 0 -- -- 39
2017-07-31 16:00:00 35.9 18 Sudeste 27 Sudeste 0 -- -- 38
2017-07-31 15:00:00 35.2 14 Sudeste 26 Sudeste 0 -- -- 40
2017-07-31 14:00:00 34.1 15 Sudeste 28 Sudeste 0 -- -- 47
2017-07-31 13:00:00 32.3 19 Sudeste 31 Este 0 -- -- 61
2017-07-31 12:00:00 30.6 21 Sudeste 36 Sudeste 0 -- -- 69
2017-07-31 11:00:00 30.7 15 Este 26 Este 0 -- -- 69
2017-07-31 10:00:00 29.3 11 Nordeste 18 Nordeste 0 -- -- 74
2017-07-31 09:00:00 25.8 11 Nordeste 20 Norte 0 -- -- 87
2017-07-31 08:00:00 23.9 4 Nordeste 8 Nordeste 0 -- -- 93
2017-07-31 07:00:00 23.7 4 Norte 8 Norte 0 -- -- 92
2017-07-31 06:00:00 24.6 5 Este 13 Nordeste 0 -- -- 91
2017-07-31 05:00:00 25.1 7 Nordeste 10 Nordeste 0 -- -- 90
2017-07-31 04:00:00 24.9 3 Norte 6 Norte 0 -- -- 91
2017-07-31 03:00:00 24.6 0 Calma 9 Norte 0 -- -- 92
2017-07-31 02:00:00 25.1 6 Nordeste 10 Nordeste 0 -- -- 91
2017-07-31 01:00:00 26 3 Nordeste 12 Este 0 -- -- 90
2017-07-31 00:00:00 26.4 6 Este 15 Este 0 -- -- 88
2017-07-30 23:00:00 27 13 Este 24 Este 0 -- -- 88
2017-07-30 22:00:00 27.6 8 Este 16 Nordeste 0 -- -- 83
2017-07-30 21:00:00 29.1 12 Este 21 Este 0 -- -- 74
2017-07-30 20:00:00 31.7 13 Este 22 Este 0 -- -- 65
2017-07-30 19:00:00 32.8 7 Este 19 Sudeste 0 -- -- 64
2017-07-30 18:00:00 33.5 10 Este 20 Este 0 -- -- 57
2017-07-30 17:00:00 34.2 12 Sudeste 22 Sudeste 0 -- -- 52
2017-07-30 16:00:00 34.1 15 Sudeste 23 Sudeste 0 -- -- 51
2017-07-30 15:00:00 34.7 13 Sudeste 22 Sudeste 0 -- -- 46
2017-07-30 14:00:00 34.9 13 Sudeste 23 Sudeste 0 -- -- 45
2017-07-30 13:00:00 34.3 15 Sudeste 27 Sudeste 0 -- -- 44
2017-07-30 12:00:00 34.6 7 Este 22 Este 0 -- -- 40
2017-07-30 11:00:00 32.9 7 Sudeste 12 Sudeste 0 -- -- 46
2017-07-30 10:00:00 29 4 Noroeste 8 Norte 0 -- -- 63
2017-07-30 09:00:00 25.5 5 Norte 10 Norte 0 -- -- 83
2017-07-30 08:00:00 22.2 4 Norte 7 Norte 0 -- -- 93
2017-07-30 07:00:00 21.4 3 Norte 8 Norte 0 -- -- 93
2017-07-30 06:00:00 21.2 6 Norte 8 Norte 0 -- -- 93
2017-07-30 05:00:00 20.5 0 Calma 5 Norte 0 -- -- 90
2017-07-30 04:00:00 20.6 0 Calma 5 Nordeste 0 -- -- 88
2017-07-30 03:00:00 22.2 4 Nordeste 10 Nordeste 0 -- -- 86
2017-07-30 02:00:00 23.1 3 Este 8 Norte 0 -- -- 87
2017-07-30 01:00:00 24 4 Este 9 Este 0 -- -- 82
2017-07-30 00:00:00 25.4 3 Nordeste 10 Este 0 -- -- 84
2017-07-29 23:00:00 26.1 10 Este 23 Sudeste 0 -- -- 82
2017-07-29 22:00:00 26.7 19 Sudeste 28 Sudeste 0 -- -- 77
2017-07-29 21:00:00 28.1 18 Sudeste 30 Sudeste 0 -- -- 65
2017-07-29 20:00:00 30.5 20 Sudeste 27 Sudeste 0 -- -- 51
2017-07-29 19:00:00 31.9 16 Sudeste 28 Sudeste 0 -- -- 44
2017-07-29 18:00:00 32.1 20 Sudeste 31 Sudeste 0 -- -- 46
2017-07-29 17:00:00 32.8 19 Sudeste 30 Sudeste 0 -- -- 45
2017-07-29 16:00:00 33.7 21 Sudeste 32 Sudeste 0 -- -- 38
2017-07-29 15:00:00 33.9 21 Sudeste 29 Sudeste 0 -- -- 36
2017-07-29 14:00:00 33.7 19 Sudeste 33 Sudeste 0 -- -- 37
2017-07-29 13:00:00 33.6 21 Sudeste 31 Sudeste 0 -- -- 40
2017-07-29 12:00:00 32.5 18 Sudeste 28 Sudeste 0 -- -- 43
2017-07-29 11:00:00 31.6 14 Este 22 Sudeste 0 -- -- 47
2017-07-29 10:00:00 30 13 Este 17 Este 0 -- -- 60
2017-07-29 09:00:00 25.9 6 Norte 10 Norte 0 -- -- 79
2017-07-29 08:00:00 22.9 3 Norte 8 Norte 0 -- -- 88
2017-07-29 07:00:00 21.3 6 Norte 11 Nordeste 0 -- -- 92
2017-07-29 06:00:00 21.8 7 Nordeste 10 Nordeste 0 -- -- 91
2017-07-29 05:00:00 22.4 6 Nordeste 10 Nordeste 0 -- -- 88
2017-07-29 04:00:00 22.5 6 Nordeste 10 Nordeste 0 -- -- 91
2017-07-29 03:00:00 22.1 4 Norte 7 Norte 0 -- -- 87
2017-07-29 02:00:00 23.2 5 Nordeste 9 Nordeste 0 -- -- 83
2017-07-29 01:00:00 23.7 6 Norte 9 Norte 0 -- -- 80
2017-07-29 00:00:00 24.5 3 Este 9 Norte 0 -- -- 82
2017-07-28 23:00:00 26 4 Nordeste 8 Este 0 -- -- 77
2017-07-28 22:00:00 26.8 5 Este 19 Este 0 -- -- 75
2017-07-28 21:00:00 27.7 10 Este 20 Sudeste 0 -- -- 71
2017-07-28 20:00:00 29.6 15 Sudeste 23 Sudeste 0 -- -- 61
2017-07-28 19:00:00 31 16 Sudeste 28 Sudeste 0 -- -- 51
2017-07-28 18:00:00 31.4 20 Sudeste 31 Este 0 -- -- 53
2017-07-28 17:00:00 32 19 Sudeste 31 Sudeste 0 -- -- 50
2017-07-28 16:00:00 32.6 22 Sudeste 33 Sudeste 0 -- -- 45
2017-07-28 15:00:00 33 19 Sudeste 31 Sur 0 -- -- 39
2017-07-28 14:00:00 32.9 17 Sur 28 Sudeste 0 -- -- 41
2017-07-28 13:00:00 33.2 14 Sudeste 28 Sudeste 0 -- -- 43
2017-07-28 12:00:00 32.8 12 Sudeste 21 Sudeste 0 -- -- 40
2017-07-28 11:00:00 31.5 6 Sudeste 17 Sudeste 0 -- -- 48
2017-07-28 10:00:00 29.1 8 Sudeste 18 Este 0 -- -- 68
2017-07-28 09:00:00 26 4 Este 10 Norte 0 -- -- 86
2017-07-28 08:00:00 21.9 0 Calma 4 Norte 0 -- -- 89
2017-07-28 07:00:00 19.6 3 Norte 4 Norte 0 -- -- 94
2017-07-28 06:00:00 19.1 0 Calma 2 Sudeste 0 -- -- 92
2017-07-28 05:00:00 19.6 0 Calma 2 Sudoeste 0 -- -- 91
2017-07-28 04:00:00 19.9 0 Calma 3 Norte 0 -- -- 89
2017-07-28 03:00:00 20.8 0 Calma 4 Noroeste 0 -- -- 89
2017-07-28 02:00:00 21.1 2 Sudeste 3 Sudeste 0 -- -- 88
2017-07-28 01:00:00 22.3 0 Calma 6 Sudeste 0 -- -- 90
2017-07-28 00:00:00 22.3 5 Sur 6 Sur 0 -- -- 87
2017-07-27 23:00:00 23.7 3 Sudeste 5 Sudeste 0 -- -- 83
2017-07-27 22:00:00 25.2 3 Sudeste 12 Sudoeste 0 -- -- 80
2017-07-27 21:00:00 26.6 7 Sudoeste 15 Sudoeste 0 -- -- 76
2017-07-27 20:00:00 28 10 Sudoeste 22 Sudoeste 0 -- -- 72
2017-07-27 19:00:00 28.5 13 Sudoeste 25 Sudoeste 0 -- -- 68
2017-07-27 18:00:00 28.5 14 Sudoeste 27 Sudoeste 0 -- -- 70
2017-07-27 17:00:00 28.8 15 Sudoeste 28 Sudoeste 0 -- -- 68
2017-07-27 16:00:00 29 18 Sudoeste 31 Sudoeste 0 -- -- 69
2017-07-27 15:00:00 29.2 16 Sudoeste 33 Sudoeste 0 -- -- 69
2017-07-27 14:00:00 28.6 20 Sudoeste 33 Sudoeste 0 -- -- 70
2017-07-27 13:00:00 28.4 18 Sudoeste 28 Oeste 0 -- -- 65
2017-07-27 12:00:00 28.5 13 Oeste 23 Oeste 0 -- -- 65
2017-07-27 11:00:00 28.1 13 Sudoeste 20 Oeste 0 -- -- 64
2017-07-27 10:00:00 26.8 10 Oeste 14 Oeste 0 -- -- 67
2017-07-27 09:00:00 23 0 Calma 4 Noroeste 0 -- -- 85
2017-07-27 08:00:00 20.5 0 Calma 4 Norte 0 -- -- 88
2017-07-27 07:00:00 18 2 Norte 4 Norte 0 -- -- 93
2017-07-27 06:00:00 17.7 0 Calma 4 Norte 0 -- -- 91
2017-07-27 05:00:00 19 3 Norte 9 Noroeste 0 -- -- 92
2017-07-27 04:00:00 19.6 0 Calma 7 Nordeste 0 -- -- 92
2017-07-27 03:00:00 19.4 0 Calma 6 Noroeste 0 -- -- 90
2017-07-27 02:00:00 20.2 4 Noroeste 6 Norte 0 -- -- 89
2017-07-27 01:00:00 21.1 0 Calma 7 Nordeste 0 -- -- 84
2017-07-27 00:00:00 21.4 0 Calma 6 Norte 0 -- -- 80
2017-07-26 23:00:00 23.3 3 Nordeste 8 Norte 0 -- -- 81
2017-07-26 22:00:00 24.2 6 Nordeste 13 Oeste 0 -- -- 76
2017-07-26 21:00:00 26.1 10 Oeste 22 Oeste 0 -- -- 56
2017-07-26 20:00:00 26.8 17 Oeste 37 Oeste 0 -- -- 58
2017-07-26 19:00:00 27.1 25 Oeste 32 Oeste 0 -- -- 60
2017-07-26 18:00:00 27.3 24 Oeste 32 Oeste 0 -- -- 62
2017-07-26 17:00:00 27.6 21 Oeste 31 Oeste 0 -- -- 68
2017-07-26 16:00:00 27.8 22 Oeste 35 Sudoeste 0 -- -- 68
2017-07-26 15:00:00 28.3 18 Sudoeste 32 Oeste 0 -- -- 66
2017-07-26 14:00:00 28.1 18 Sudoeste 31 Sur 0 -- -- 64
2017-07-26 13:00:00 27 15 Sudoeste 30 Sur 0 -- -- 69
2017-07-26 12:00:00 27.3 11 Sudoeste 22 Sur 0 -- -- 67
2017-07-26 11:00:00 25.4 10 Sudoeste 20 Sudoeste 0.2 -- -- 74
2017-07-26 10:00:00 24.4 3 Noroeste 15 Sudoeste 0 -- -- 72
2017-07-26 09:00:00 23.9 8 Sur 12 Sur 0 -- -- 74
2017-07-26 08:00:00 20.2 0 Calma 4 Noroeste 0 -- -- 82
2017-07-26 07:00:00 18.5 0 Calma 5 Norte 0 -- -- 83
2017-07-26 06:00:00 18.6 0 Calma 6 Sudeste 0 -- -- 84
2017-07-26 05:00:00 18.8 5 Sudeste 7 Sudeste 0 -- -- 83
2017-07-26 04:00:00 18.9 0 Calma 4 Sudeste 0 -- -- 81
2017-07-26 03:00:00 19.4 0 Calma 3 Nordeste 0 -- -- 78
2017-07-26 02:00:00 20.8 3 Nordeste 8 Norte 0 -- -- 76
2017-07-26 01:00:00 20.5 3 Sudeste 4 Sudeste 0 -- -- 75
2017-07-26 00:00:00 21.4 0 Calma 3 Sudeste 0 -- -- 72
2017-07-25 23:00:00 22.1 3 Sudeste 9 Este 0 -- -- 70
2017-07-25 22:00:00 23.7 6 Este 16 Sudeste 0 -- -- 67
2017-07-25 21:00:00 24.7 14 Sudeste 23 Sudeste 0 -- -- 63
2017-07-25 20:00:00 26 15 Sudeste 26 Sudeste 0 -- -- 60
2017-07-25 19:00:00 27.1 15 Sudeste 25 Sudeste 0 -- -- 55
2017-07-25 18:00:00 27.3 13 Sudeste 25 Este 0 -- -- 53
2017-07-25 17:00:00 27.1 18 Sudeste 28 Sudeste 0 -- -- 54
2017-07-25 16:00:00 26.9 12 Este 28 Sudeste 0 -- -- 55
2017-07-25 15:00:00 26.4 15 Este 31 Sudeste 0 -- -- 57
2017-07-25 14:00:00 27.6 18 Este 34 Este 0 -- -- 56
2017-07-25 13:00:00 27.4 17 Sudeste 29 Este 0 -- -- 56
2017-07-25 12:00:00 27.3 17 Este 27 Este 0 -- -- 56
2017-07-25 11:00:00 26.9 16 Este 32 Nordeste 0 -- -- 58
2017-07-25 10:00:00 25.5 21 Este 30 Este 0 -- -- 62
2017-07-25 09:00:00 25 19 Este 35 Este 0 -- -- 65
2017-07-25 08:00:00 24.6 11 Este 19 Nordeste 0 -- -- 70
2017-07-25 07:00:00 23.5 11 Nordeste 22 Este 0 -- -- 77
2017-07-25 06:00:00 23.5 12 Este 18 Este 0 -- -- 86
2017-07-25 05:00:00 21.6 0 Calma 4 Nordeste 0 -- -- 88
2017-07-25 04:00:00 21.9 0 Calma 4 Sudeste 0 -- -- 90
2017-07-25 03:00:00 22.5 0 Calma 5 Noroeste 0 -- -- 86
2017-07-25 02:00:00 23.2 2 Nordeste 6 Nordeste 0 -- -- 86
2017-07-25 01:00:00 23.9 0 Calma 8 Oeste 0 -- -- 82
2017-07-25 00:00:00 25 5 Oeste 10 Oeste 0 -- -- 85
2017-07-24 23:00:00 25.8 4 Nordeste 7 Este 0 -- -- 79
2017-07-24 22:00:00 27.1 4 Nordeste 17 Nordeste 0 -- -- 69
2017-07-24 21:00:00 29.5 11 Norte 20 Norte 0 -- -- 60
2017-07-24 20:00:00 31.5 21 Noroeste 41 Oeste 0 -- -- 53
2017-07-24 19:00:00 31.3 15 Norte 31 Norte 0 -- -- 53
2017-07-24 18:00:00 32.1 14 Oeste 45 Oeste 0 -- -- 53
2017-07-24 17:00:00 29.2 32 Oeste 42 Oeste 0 -- -- 66
2017-07-24 16:00:00 30 20 Sudoeste 44 Sudoeste 0 -- -- 63
2017-07-24 15:00:00 29.1 29 Oeste 38 Oeste 0 -- -- 68
2017-07-24 14:00:00 29.4 25 Oeste 37 Oeste 0 -- -- 70
2017-07-24 13:00:00 29 20 Oeste 28 Oeste 0 -- -- 69
2017-07-24 12:00:00 28.3 16 Sudoeste 27 Sudoeste 0 -- -- 73
2017-07-24 11:00:00 27 12 Sudoeste 19 Oeste 0 -- -- 77
2017-07-24 10:00:00 27.6 10 Oeste 16 Sudoeste 0 -- -- 75
2017-07-24 09:00:00 26.6 4 Sudeste 9 Sudeste 0 -- -- 83
2017-07-24 08:00:00 23 5 Norte 7 Norte 0 -- -- 92
2017-07-24 07:00:00 21.6 5 Norte 8 Norte 0 -- -- 93
2017-07-24 06:00:00 21.8 4 Sudeste 8 Sudeste 0 -- -- 93
2017-07-24 05:00:00 22.4 3 Sudeste 8 Norte 0 -- -- 92
2017-07-24 04:00:00 22.4 2 Norte 5 Norte 0 -- -- 92
2017-07-24 03:00:00 22.5 2 Sudeste -- -- 0 -- -- 91
2017-07-24 02:00:00 23.5 6 Norte 7 Norte 0 -- -- 90
2017-07-24 01:00:00 23.8 0 Calma 5 Noroeste 0 -- -- 85
2017-07-24 00:00:00 25.2 4 Nordeste 11 Sudeste 0 -- -- 87
2017-07-23 23:00:00 25.8 6 Sudeste 15 Sudeste 0 -- -- 86
2017-07-23 22:00:00 26.5 10 Sudeste 15 Sudeste 0 -- -- 82
2017-07-23 21:00:00 27.1 8 Sudoeste 13 Sudoeste 0 -- -- 80
2017-07-23 20:00:00 27.9 8 Sudoeste 26 Sudoeste 0 -- -- 77
2017-07-23 19:00:00 29.5 6 Sur 18 Sur 0 -- -- 70
2017-07-23 18:00:00 29.2 14 Sur 23 Sudoeste 0 -- -- 71
2017-07-23 17:00:00 31.1 6 Este 14 Sudeste 0 -- -- 59
2017-07-23 16:00:00 29.1 8 Sur 36 Este 0 -- -- 69
2017-07-23 15:00:00 29 17 Sudeste 30 Sudeste 0 -- -- 69
2017-07-23 14:00:00 29.2 13 Este 29 Sudeste 0 -- -- 66
2017-07-23 13:00:00 29.8 11 Este 37 Este 0 -- -- 65
2017-07-23 12:00:00 28.6 12 Este 40 Este 0 -- -- 71
2017-07-23 11:00:00 28.6 23 Este 34 Este 0 -- -- 71
2017-07-23 10:00:00 27.5 16 Este 24 Este 0 -- -- 75
2017-07-23 09:00:00 25.8 3 Noroeste 9 Nordeste 0 -- -- 85
2017-07-23 08:00:00 23.3 7 Norte 10 Norte 0 -- -- 91
2017-07-23 07:00:00 23.2 5 Nordeste 15 Este 0 -- -- 90
2017-07-23 06:00:00 22.4 4 Nordeste 9 Nordeste 0 -- -- 94
2017-07-23 05:00:00 22 4 Sudeste 15 Sudeste 0 -- -- 93
2017-07-23 04:00:00 22.5 4 Nordeste 12 Norte 0 -- -- 91
2017-07-23 03:00:00 23.6 8 Norte 19 Sur 0 -- -- 90
2017-07-23 02:00:00 23.4 6 Norte 11 Nordeste 0 -- -- 88
2017-07-23 01:00:00 23.6 4 Nordeste 8 Norte 0 -- -- 87
2017-07-23 00:00:00 24.3 0 Calma -- -- 0 -- -- 84